CYOO

Oshawa Airport

Oshawa, , Canada
METAR CYOO 191700Z AUTO 11007KT 080V170 9SM FEW036 24/16 A3003 RMK SLP171 DENSITY ALT 1400FT
Observed Flight Rules
Aug-19 @ 17:00 UTC (14 minutes ago) Visual Flight Rules
Wind Visibility Clouds
110° at 7 knots 9 miles
  • Few at 3,600' AGL
Temperatures Readings
Current 24°C / 75°F
Dewpoint 16°C / 61°F
Humidity 61%
Altimeter 30.03" Hg
Pressure 1017.1 hPa
Elevation 139
METAR CYOO 191700Z AUTO 11007KT 080V170 9SM FEW036 24/16 A3003 RMK SLP171 DENSITY ALT 1400FT
Observed Flight Rules
Aug-19 @ 17:00 UTC
(14 minutes ago)
VFR
Wind Visibility
110° at 7 knots 9 miles
Clouds
  • Few at 3,600' AGL
Temperature Dewpoint
24°C / 75°F 16°C / 61°F
Humidity Altimeter Pressure
61% 30.03" Hg 1017.1 hPa